sensor_id;sensor_type;location;lat;lon;timestamp;pressure;altitude;pressure_sealevel;temperature;humidity
9523;BME280;63165;43.016;25.784;2022-10-10T00:00:14;100887.66;;;10.63;83.81
9523;BME280;63165;43.016;25.784;2022-10-10T00:02:43;100892.94;;;10.59;84.96
9523;BME280;63165;43.016;25.784;2022-10-10T00:05:10;100852.84;;;10.40;85.33
9523;BME280;63165;43.016;25.784;2022-10-10T00:07:37;100898.13;;;10.60;85.77
9523;BME280;63165;43.016;25.784;2022-10-10T00:10:05;100882.44;;;10.62;86.86
9523;BME280;63165;43.016;25.784;2022-10-10T00:12:32;100884.19;;;10.61;88.00
9523;BME280;63165;43.016;25.784;2022-10-10T00:14:59;100882.44;;;10.63;88.99
9523;BME280;63165;43.016;25.784;2022-10-10T00:17:27;100886.78;;;10.69;88.50
9523;BME280;63165;43.016;25.784;2022-10-10T00:19:55;100882.41;;;10.73;89.06
9523;BME280;63165;43.016;25.784;2022-10-10T00:22:23;100843.25;;;10.51;89.65
9523;BME280;63165;43.016;25.784;2022-10-10T00:24:50;100880.66;;;10.76;89.43
9523;BME280;63165;43.016;25.784;2022-10-10T00:27:17;100861.53;;;10.57;89.11
9523;BME280;63165;43.016;25.784;2022-10-10T00:29:45;100877.19;;;10.66;88.71
9523;BME280;63165;43.016;25.784;2022-10-10T00:32:12;100863.25;;;10.58;88.63
9523;BME280;63165;43.016;25.784;2022-10-10T00:34:39;100839.81;;;10.31;88.25
9523;BME280;63165;43.016;25.784;2022-10-10T00:37:08;100875.41;;;10.75;88.37
9523;BME280;63165;43.016;25.784;2022-10-10T00:39:35;100881.53;;;10.71;88.35
9523;BME280;63165;43.016;25.784;2022-10-10T00:42:03;100884.16;;;10.74;88.27
9523;BME280;63165;43.016;25.784;2022-10-10T00:44:30;100891.13;;;10.76;88.11
9523;BME280;63165;43.016;25.784;2022-10-10T00:46:57;100885.88;;;10.75;88.47
9523;BME280;63165;43.016;25.784;2022-10-10T00:49:27;100880.69;;;10.68;88.07
9523;BME280;63165;43.016;25.784;2022-10-10T00:51:57;100896.38;;;10.64;88.31
9523;BME280;63165;43.016;25.784;2022-10-10T00:54:27;100867.69;;;10.41;88.72
9523;BME280;63165;43.016;25.784;2022-10-10T00:57:01;100907.78;;;10.55;89.00
9523;BME280;63165;43.016;25.784;2022-10-10T00:59:31;100891.19;;;10.48;89.47
9523;BME280;63165;43.016;25.784;2022-10-10T01:02:00;100903.38;;;10.62;88.96
9523;BME280;63165;43.016;25.784;2022-10-10T01:04:32;100898.13;;;10.60;88.92
9523;BME280;63165;43.016;25.784;2022-10-10T01:07:00;100906.88;;;10.58;88.85
9523;BME280;63165;43.016;25.784;2022-10-10T01:09:31;100876.38;;;10.49;88.85
9523;BME280;63165;43.016;25.784;2022-10-10T01:12:03;100902.53;;;10.54;89.05
9523;BME280;63165;43.016;25.784;2022-10-10T01:14:39;100904.28;;;10.52;89.11
9523;BME280;63165;43.016;25.784;2022-10-10T01:17:16;100878.13;;;10.30;89.12
9523;BME280;63165;43.016;25.784;2022-10-10T01:22:49;100909.53;;;10.44;88.72
9523;BME280;63165;43.016;25.784;2022-10-10T01:25:26;100915.63;;;10.51;88.82
9523;BME280;63165;43.016;25.784;2022-10-10T01:27:59;100922.59;;;10.53;88.11
9523;BME280;63165;43.016;25.784;2022-10-10T01:30:29;100914.75;;;10.53;87.84
9523;BME280;63165;43.016;25.784;2022-10-10T01:33:05;100914.75;;;10.47;87.85
9523;BME280;63165;43.016;25.784;2022-10-10T01:35:41;100929.56;;;10.54;87.34
9523;BME280;63165;43.016;25.784;2022-10-10T01:38:23;100924.31;;;10.54;87.08
9523;BME280;63165;43.016;25.784;2022-10-10T01:40:58;100893.00;;;10.33;86.47
9523;BME280;63165;43.016;25.784;2022-10-10T01:43:29;100926.97;;;10.46;86.21
9523;BME280;63165;43.016;25.784;2022-10-10T01:45:58;100903.44;;;10.25;86.28
9523;BME280;63165;43.016;25.784;2022-10-10T01:48:28;100923.50;;;10.35;86.17
9523;BME280;63165;43.016;25.784;2022-10-10T01:51:23;100936.56;;;10.34;85.60
9523;BME280;63165;43.016;25.784;2022-10-10T01:54:04;100916.53;;;10.16;85.70
9523;BME280;63165;43.016;25.784;2022-10-10T01:56:39;100899.13;;;10.01;85.97
9523;BME280;63165;43.016;25.784;2022-10-10T01:59:20;100939.19;;;10.21;86.23
9523;BME280;63165;43.016;25.784;2022-10-10T02:01:55;100938.31;;;10.18;85.91
9523;BME280;63165;43.016;25.784;2022-10-10T02:04:30;100933.09;;;10.08;86.13
9523;BME280;63165;43.016;25.784;2022-10-10T02:07:01;100946.16;;;10.15;85.98
9523;BME280;63165;43.016;25.784;2022-10-10T02:09:35;100943.53;;;10.19;85.36
9523;BME280;63165;43.016;25.784;2022-10-10T02:12:03;100946.16;;;10.16;85.65
9523;BME280;63165;43.016;25.784;2022-10-10T02:14:35;100942.69;;;10.14;85.83
9523;BME280;63165;43.016;25.784;2022-10-10T02:17:07;100937.44;;;10.11;85.50
9523;BME280;63165;43.016;25.784;2022-10-10T02:19:37;100945.28;;;10.13;85.24
9523;BME280;63165;43.016;25.784;2022-10-10T02:22:05;100926.09;;;9.97;85.32
9523;BME280;63165;43.016;25.784;2022-10-10T02:24:33;100911.28;;;9.91;84.65
9523;BME280;63165;43.016;25.784;2022-10-10T02:27:05;100938.31;;;10.02;84.95
9523;BME280;63165;43.016;25.784;2022-10-10T02:29:35;100940.94;;;10.01;84.96
9523;BME280;63165;43.016;25.784;2022-10-10T02:32:10;100944.41;;;9.97;84.76
9523;BME280;63165;43.016;25.784;2022-10-10T02:34:42;100948.75;;;9.93;84.53
9523;BME280;63165;43.016;25.784;2022-10-10T02:37:12;100954.88;;;9.94;84.47
9523;BME280;63165;43.016;25.784;2022-10-10T02:39:43;100956.59;;;9.87;84.16
9523;BME280;63165;43.016;25.784;2022-10-10T02:42:14;100950.50;;;9.82;84.10
9523;BME280;63165;43.016;25.784;2022-10-10T02:44:42;100973.16;;;9.81;84.13
9523;BME280;63165;43.016;25.784;2022-10-10T02:47:12;100960.97;;;9.77;84.43
9523;BME280;63165;43.016;25.784;2022-10-10T02:49:39;100972.28;;;9.79;84.27
9523;BME280;63165;43.016;25.784;2022-10-10T02:52:07;100979.25;;;9.74;84.47
9523;BME280;63165;43.016;25.784;2022-10-10T02:54:34;100946.09;;;9.51;84.23
9523;BME280;63165;43.016;25.784;2022-10-10T02:57:01;100953.94;;;9.48;85.09
9523;BME280;63165;43.016;25.784;2022-10-10T02:59:29;100977.47;;;9.68;84.70
9523;BME280;63165;43.016;25.784;2022-10-10T03:01:56;100962.69;;;9.58;84.81
9523;BME280;63165;43.016;25.784;2022-10-10T03:04:25;100966.13;;;9.56;84.60
9523;BME280;63165;43.016;25.784;2022-10-10T03:06:53;100971.38;;;9.52;85.28
9523;BME280;63165;43.016;25.784;2022-10-10T03:09:20;100991.41;;;9.64;85.38
9523;BME280;63165;43.016;25.784;2022-10-10T03:11:48;100976.59;;;9.54;85.73
9523;BME280;63165;43.016;25.784;2022-10-10T03:14:15;101001.03;;;9.65;85.11
9523;BME280;63165;43.016;25.784;2022-10-10T03:16:42;100985.25;;;9.42;84.75
9523;BME280;63165;43.016;25.784;2022-10-10T03:19:10;100975.69;;;9.47;84.98
9523;BME280;63165;43.016;25.784;2022-10-10T03:21:39;101004.47;;;9.64;84.90
9523;BME280;63165;43.016;25.784;2022-10-10T03:24:06;100994.00;;;9.49;84.66
9523;BME280;63165;43.016;25.784;2022-10-10T03:26:34;100973.06;;;9.40;84.26
9523;BME280;63165;43.016;25.784;2022-10-10T03:29:02;101005.31;;;9.51;84.49
9523;BME280;63165;43.016;25.784;2022-10-10T03:31:30;101010.56;;;9.52;84.19
9523;BME280;63165;43.016;25.784;2022-10-10T03:33:57;100979.13;;;9.25;83.45
9523;BME280;63165;43.016;25.784;2022-10-10T03:36:25;100999.19;;;9.40;84.35
9523;BME280;63165;43.016;25.784;2022-10-10T03:38:54;100973.88;;;9.17;84.50
9523;BME280;63165;43.016;25.784;2022-10-10T03:41:22;101005.28;;;9.34;84.17
9523;BME280;63165;43.016;25.784;2022-10-10T03:43:49;101009.63;;;9.32;84.45
9523;BME280;63165;43.016;25.784;2022-10-10T03:46:16;101010.47;;;9.26;84.17
9523;BME280;63165;43.016;25.784;2022-10-10T03:48:44;100967.72;;;9.10;84.06
9523;BME280;63165;43.016;25.784;2022-10-10T03:51:11;101003.53;;;9.36;83.94
9523;BME280;63165;43.016;25.784;2022-10-10T03:53:38;100999.13;;;9.27;84.00
9523;BME280;63165;43.016;25.784;2022-10-10T03:56:07;101007.84;;;9.26;84.27
9523;BME280;63165;43.016;25.784;2022-10-10T03:58:35;101012.19;;;9.23;84.19
9523;BME280;63165;43.016;25.784;2022-10-10T04:01:02;101009.53;;;9.15;84.34
9523;BME280;63165;43.016;25.784;2022-10-10T04:03:30;101007.78;;;9.11;84.40
9523;BME280;63165;43.016;25.784;2022-10-10T04:05:58;101012.13;;;9.13;84.55
9523;BME280;63165;43.016;25.784;2022-10-10T04:08:25;100988.59;;;9.00;84.21
9523;BME280;63165;43.016;25.784;2022-10-10T04:10:53;100998.16;;;9.02;84.70
9523;BME280;63165;43.016;25.784;2022-10-10T04:13:22;101005.97;;;8.99;84.59
9523;BME280;63165;43.016;25.784;2022-10-10T04:15:52;101007.66;;;8.88;84.46
9523;BME280;63165;43.016;25.784;2022-10-10T04:18:21;100997.16;;;8.80;84.46
9523;BME280;63165;43.016;25.784;2022-10-10T04:20:48;100980.59;;;8.70;84.56
9523;BME280;63165;43.016;25.784;2022-10-10T04:23:16;100976.25;;;8.68;85.50
9523;BME280;63165;43.016;25.784;2022-10-10T04:25:43;100980.56;;;8.67;85.33
9523;BME280;63165;43.016;25.784;2022-10-10T04:28:14;101003.31;;;8.87;85.18
9523;BME280;63165;43.016;25.784;2022-10-10T04:30:43;101005.03;;;8.85;85.47
9523;BME280;63165;43.016;25.784;2022-10-10T04:33:10;101006.75;;;8.80;85.31
9523;BME280;63165;43.016;25.784;2022-10-10T04:35:37;101003.28;;;8.79;85.51
9523;BME280;63165;43.016;25.784;2022-10-10T04:38:05;101008.50;;;8.84;85.88
9523;BME280;63165;43.016;25.784;2022-10-10T04:40:32;101002.38;;;8.74;86.33
9523;BME280;63165;43.016;25.784;2022-10-10T04:43:01;101011.13;;;8.84;86.03
9523;BME280;63165;43.016;25.784;2022-10-10T04:45:29;101020.72;;;8.91;85.58
9523;BME280;63165;43.016;25.784;2022-10-10T04:47:57;101021.59;;;8.88;85.57
9523;BME280;63165;43.016;25.784;2022-10-10T04:50:25;101051.16;;;8.92;85.76
9523;BME280;63165;43.016;25.784;2022-10-10T04:52:52;101018.09;;;8.89;86.11
9523;BME280;63165;43.016;25.784;2022-10-10T04:55:19;101018.09;;;8.85;86.62
9523;BME280;63165;43.016;25.784;2022-10-10T04:57:47;101030.28;;;8.92;86.82
9523;BME280;63165;43.016;25.784;2022-10-10T05:00:14;101026.81;;;8.88;86.99
9523;BME280;63165;43.016;25.784;2022-10-10T05:02:41;101025.09;;;8.95;86.86
9523;BME280;63165;43.016;25.784;2022-10-10T05:05:10;101013.78;;;8.94;86.81
9523;BME280;63165;43.016;25.784;2022-10-10T05:07:37;101010.28;;;8.89;86.83
9523;BME280;63165;43.016;25.784;2022-10-10T05:10:05;101026.81;;;8.90;87.34
9523;BME280;63165;43.016;25.784;2022-10-10T05:12:32;101019.91;;;8.98;87.55
9523;BME280;63165;43.016;25.784;2022-10-10T05:14:59;101005.00;;;8.82;87.78
9523;BME280;63165;43.016;25.784;2022-10-10T05:17:27;101005.94;;;8.87;88.83
9523;BME280;63165;43.016;25.784;2022-10-10T05:19:54;101035.56;;;9.03;89.46
9523;BME280;63165;43.016;25.784;2022-10-10T05:22:23;101031.22;;;9.05;90.12
9523;BME280;63165;43.016;25.784;2022-10-10T05:24:50;101026.91;;;9.05;90.86
9523;BME280;63165;43.016;25.784;2022-10-10T05:27:17;101019.94;;;9.04;91.63
9523;BME280;63165;43.016;25.784;2022-10-10T05:29:45;101031.34;;;9.23;91.22
9523;BME280;63165;43.016;25.784;2022-10-10T05:32:12;101046.16;;;9.35;91.42
9523;BME280;63165;43.016;25.784;2022-10-10T05:34:39;101034.00;;;9.36;91.73
9523;BME280;63165;43.016;25.784;2022-10-10T05:37:06;101048.84;;;9.49;92.21
9523;BME280;63165;43.016;25.784;2022-10-10T05:39:35;101047.13;;;9.56;92.76
9523;BME280;63165;43.016;25.784;2022-10-10T05:42:02;100995.66;;;9.22;93.13
9523;BME280;63165;43.016;25.784;2022-10-10T05:44:30;101046.31;;;9.70;93.31
9523;BME280;63165;43.016;25.784;2022-10-10T05:46:58;101044.56;;;9.74;94.04
9523;BME280;63165;43.016;25.784;2022-10-10T05:49:25;101064.66;;;9.89;94.09
9523;BME280;63165;43.016;25.784;2022-10-10T05:51:53;101059.44;;;9.97;94.92
9523;BME280;63165;43.016;25.784;2022-10-10T05:54:20;101066.44;;;10.07;95.81
9523;BME280;63165;43.016;25.784;2022-10-10T05:56:49;101059.47;;;10.15;96.25
9523;BME280;63165;43.016;25.784;2022-10-10T05:59:16;101067.34;;;10.27;96.86
9523;BME280;63165;43.016;25.784;2022-10-10T06:01:43;101062.16;;;10.38;97.47
9523;BME280;63165;43.016;25.784;2022-10-10T06:04:11;101032.50;;;10.39;98.16
9523;BME280;63165;43.016;25.784;2022-10-10T06:06:38;101075.22;;;10.75;99.36
9523;BME280;63165;43.016;25.784;2022-10-10T06:09:05;101081.31;;;10.93;100.00
9523;BME280;63165;43.016;25.784;2022-10-10T06:11:33;101061.22;;;11.05;100.00
9523;BME280;63165;43.016;25.784;2022-10-10T06:14:02;101071.63;;;11.27;100.00
9523;BME280;63165;43.016;25.784;2022-10-10T06:16:29;101067.22;;;11.37;100.00
9523;BME280;63165;43.016;25.784;2022-10-10T06:18:56;101074.16;;;11.53;100.00
9523;BME280;63165;43.016;25.784;2022-10-10T06:21:24;101085.41;;;11.78;100.00
9523;BME280;63165;43.016;25.784;2022-10-10T06:23:52;101077.47;;;11.89;100.00
9523;BME280;63165;43.016;25.784;2022-10-10T06:26:19;101080.88;;;12.08;100.00
9523;BME280;63165;43.016;25.784;2022-10-10T06:28:46;101066.88;;;12.12;100.00
9523;BME280;63165;43.016;25.784;2022-10-10T06:31:16;101087.63;;;12.43;100.00
9523;BME280;63165;43.016;25.784;2022-10-10T06:33:44;101076.16;;;12.58;100.00
9523;BME280;63165;43.016;25.784;2022-10-10T06:36:13;101080.41;;;12.73;100.00
9523;BME280;63165;43.016;25.784;2022-10-10T06:38:41;101083.78;;;12.89;100.00
9523;BME280;63165;43.016;25.784;2022-10-10T06:41:09;101086.22;;;13.06;99.75
9523;BME280;63165;43.016;25.784;2022-10-10T06:43:37;101078.16;;;13.21;98.53
9523;BME280;63165;43.016;25.784;2022-10-10T06:46:04;101058.03;;;13.20;97.47
9523;BME280;63165;43.016;25.784;2022-10-10T06:48:33;101071.78;;;13.47;97.26
9523;BME280;63165;43.016;25.784;2022-10-10T06:51:03;101079.41;;;13.67;96.24
9523;BME280;63165;43.016;25.784;2022-10-10T06:53:31;101080.09;;;13.79;95.82
9523;BME280;63165;43.016;25.784;2022-10-10T06:55:58;101075.53;;;13.95;94.98
9523;BME280;63165;43.016;25.784;2022-10-10T06:58:27;101074.44;;;14.10;93.57
9523;BME280;63165;43.016;25.784;2022-10-10T07:00:57;101081.22;;;14.25;93.73
9523;BME280;63165;43.016;25.784;2022-10-10T07:03:24;101070.47;;;14.39;92.78
9523;BME280;63165;43.016;25.784;2022-10-10T07:05:55;101065.09;;;14.45;91.44
9523;BME280;63165;43.016;25.784;2022-10-10T07:08:23;101069.97;;;14.70;91.87
9523;BME280;63165;43.016;25.784;2022-10-10T07:10:51;101069.75;;;14.84;91.03
9523;BME280;63165;43.016;25.784;2022-10-10T07:13:19;101067.63;;;15.03;90.08
9523;BME280;63165;43.016;25.784;2022-10-10T07:15:46;101062.06;;;15.18;89.24
9523;BME280;63165;43.016;25.784;2022-10-10T07:18:13;101059.19;;;15.32;87.40
9523;BME280;63165;43.016;25.784;2022-10-10T07:20:42;101069.44;;;15.46;86.44
9523;BME280;63165;43.016;25.784;2022-10-10T07:23:11;101060.34;;;15.61;85.38
9523;BME280;63165;43.016;25.784;2022-10-10T07:25:40;101055.66;;;15.75;84.35
9523;BME280;63165;43.016;25.784;2022-10-10T07:28:08;101058.81;;;15.91;83.02
9523;BME280;63165;43.016;25.784;2022-10-10T07:30:38;101060.25;;;16.06;81.91
9523;BME280;63165;43.016;25.784;2022-10-10T07:33:06;101058.16;;;16.20;81.63
9523;BME280;63165;43.016;25.784;2022-10-10T07:35:33;101059.59;;;16.34;80.51
9523;BME280;63165;43.016;25.784;2022-10-10T07:38:00;101051.28;;;16.49;79.36
9523;BME280;63165;43.016;25.784;2022-10-10T07:40:30;101045.69;;;16.61;79.64
9523;BME280;63165;43.016;25.784;2022-10-10T07:42:57;101047.13;;;16.73;78.12
9523;BME280;63165;43.016;25.784;2022-10-10T07:45:24;101049.44;;;16.87;77.88
9523;BME280;63165;43.016;25.784;2022-10-10T07:47:52;101049.09;;;17.01;77.90
9523;BME280;63165;43.016;25.784;2022-10-10T07:50:19;101049.50;;;17.17;77.55
9523;BME280;63165;43.016;25.784;2022-10-10T07:52:49;101040.19;;;17.35;77.77
9523;BME280;63165;43.016;25.784;2022-10-10T07:55:16;101031.09;;;17.45;76.14
9523;BME280;63165;43.016;25.784;2022-10-10T07:57:45;101042.00;;;17.64;75.31
9523;BME280;63165;43.016;25.784;2022-10-10T08:00:14;101012.06;;;17.62;74.62
9523;BME280;63165;43.016;25.784;2022-10-10T08:02:41;101042.09;;;17.91;73.98
9523;BME280;63165;43.016;25.784;2022-10-10T08:05:09;101037.28;;;18.03;73.43
9523;BME280;63165;43.016;25.784;2022-10-10T08:07:37;101042.84;;;18.22;72.82
9523;BME280;63165;43.016;25.784;2022-10-10T08:10:05;101046.81;;;18.36;71.98
9523;BME280;63165;43.016;25.784;2022-10-10T08:12:32;101036.72;;;18.47;70.92
9523;BME280;63165;43.016;25.784;2022-10-10T08:15:01;101034.56;;;18.58;70.72
9523;BME280;63165;43.016;25.784;2022-10-10T08:17:29;101031.56;;;18.69;70.07
9523;BME280;63165;43.016;25.784;2022-10-10T08:19:56;101023.56;;;18.71;69.32
9523;BME280;63165;43.016;25.784;2022-10-10T08:22:23;101023.84;;;18.88;69.26
9523;BME280;63165;43.016;25.784;2022-10-10T08:24:50;101020.78;;;19.00;69.07
9523;BME280;63165;43.016;25.784;2022-10-10T08:27:18;101019.50;;;19.11;68.14
9523;BME280;63165;43.016;25.784;2022-10-10T08:29:45;100999.13;;;19.11;67.25
9523;BME280;63165;43.016;25.784;2022-10-10T08:32:14;101021.19;;;19.37;66.15
9523;BME280;63165;43.016;25.784;2022-10-10T08:34:41;101014.72;;;19.44;65.96
9523;BME280;63165;43.016;25.784;2022-10-10T08:37:09;101017.81;;;19.55;65.99
9523;BME280;63165;43.016;25.784;2022-10-10T08:39:36;101016.72;;;19.61;64.65
9523;BME280;63165;43.016;25.784;2022-10-10T08:42:04;101013.91;;;19.66;65.55
9523;BME280;63165;43.016;25.784;2022-10-10T08:44:38;101002.47;;;19.64;64.95
9523;BME280;63165;43.016;25.784;2022-10-10T08:47:10;101008.06;;;19.80;64.15
9523;BME280;63165;43.016;25.784;2022-10-10T08:49:45;101011.16;;;19.91;63.52
9523;BME280;63165;43.016;25.784;2022-10-10T08:52:22;101010.00;;;19.98;62.38
9523;BME280;63165;43.016;25.784;2022-10-10T08:54:54;101008.81;;;20.05;62.44
9523;BME280;63165;43.016;25.784;2022-10-10T08:57:23;100992.00;;;20.05;62.25
9523;BME280;63165;43.016;25.784;2022-10-10T08:59:53;101002.19;;;20.15;62.40
9523;BME280;63165;43.016;25.784;2022-10-10T09:02:35;100998.47;;;20.20;61.63
9523;BME280;63165;43.016;25.784;2022-10-10T09:05:12;100997.22;;;20.28;61.90
9523;BME280;63165;43.016;25.784;2022-10-10T09:07:58;100993.19;;;20.40;60.65
9523;BME280;63165;43.016;25.784;2022-10-10T09:10:32;100991.09;;;20.48;61.20
9523;BME280;63165;43.016;25.784;2022-10-10T09:13:07;100997.69;;;20.60;61.28
9523;BME280;63165;43.016;25.784;2022-10-10T09:15:42;100991.91;;;20.71;61.71
9523;BME280;63165;43.016;25.784;2022-10-10T09:18:17;100968.16;;;20.66;60.80
9523;BME280;63165;43.016;25.784;2022-10-10T09:20:58;100949.69;;;20.63;59.98
9523;BME280;63165;43.016;25.784;2022-10-10T09:23:31;100986.34;;;20.96;59.88
9523;BME280;63165;43.016;25.784;2022-10-10T09:26:02;100977.88;;;21.07;58.96
9523;BME280;63165;43.016;25.784;2022-10-10T09:28:37;100981.22;;;21.12;57.73
9523;BME280;63165;43.016;25.784;2022-10-10T09:31:06;100977.41;;;21.18;58.67
9523;BME280;63165;43.016;25.784;2022-10-10T09:33:39;100975.81;;;21.13;58.63
9523;BME280;63165;43.016;25.784;2022-10-10T09:36:12;100975.81;;;21.32;58.06
9523;BME280;63165;43.016;25.784;2022-10-10T09:38:45;100976.31;;;21.41;57.81
9523;BME280;63165;43.016;25.784;2022-10-10T09:41:17;100979.44;;;21.50;57.64
9523;BME280;63165;43.016;25.784;2022-10-10T09:43:46;100975.63;;;21.56;56.84
9523;BME280;63165;43.016;25.784;2022-10-10T09:46:14;100955.34;;;21.54;55.96
9523;BME280;63165;43.016;25.784;2022-10-10T09:48:41;100972.25;;;21.71;55.55
9523;BME280;63165;43.016;25.784;2022-10-10T09:51:14;100956.94;;;21.75;54.94
9523;BME280;63165;43.016;25.784;2022-10-10T09:53:43;100928.81;;;21.69;54.99
9523;BME280;63165;43.016;25.784;2022-10-10T09:56:15;100936.06;;;21.85;54.48
9523;BME280;63165;43.016;25.784;2022-10-10T09:58:44;100916.00;;;21.78;55.40
9523;BME280;63165;43.016;25.784;2022-10-10T10:01:15;100907.69;;;21.84;54.76
9523;BME280;63165;43.016;25.784;2022-10-10T10:03:43;100953.16;;;22.16;53.98
9523;BME280;63165;43.016;25.784;2022-10-10T10:06:13;100952.16;;;22.18;53.36
9523;BME280;63165;43.016;25.784;2022-10-10T10:08:41;100935.69;;;22.27;53.79
9523;BME280;63165;43.016;25.784;2022-10-10T10:11:26;100927.41;;;22.34;52.51
9523;BME280;63165;43.016;25.784;2022-10-10T10:13:55;100927.78;;;22.43;52.60
9523;BME280;63165;43.016;25.784;2022-10-10T10:16:32;100929.97;;;22.53;52.34
9523;BME280;63165;43.016;25.784;2022-10-10T10:19:00;100918.03;;;22.60;52.36
9523;BME280;63165;43.016;25.784;2022-10-10T10:21:29;100919.44;;;22.67;52.33
9523;BME280;63165;43.016;25.784;2022-10-10T10:23:58;100918.63;;;22.82;52.49
9523;BME280;63165;43.016;25.784;2022-10-10T10:26:29;100915.38;;;22.93;51.55
9523;BME280;63165;43.016;25.784;2022-10-10T10:29:26;100923.81;;;23.01;50.86
9523;BME280;63165;43.016;25.784;2022-10-10T10:31:59;100911.63;;;23.13;50.33
9523;BME280;63165;43.016;25.784;2022-10-10T10:37:34;100882.94;;;23.17;49.71
9523;BME280;63165;43.016;25.784;2022-10-10T10:40:21;100903.03;;;23.40;49.21
9523;BME280;63165;43.016;25.784;2022-10-10T10:43:11;100882.22;;;23.45;48.56
9523;BME280;63165;43.016;25.784;2022-10-10T10:45:52;100888.41;;;23.61;48.22
9523;BME280;63165;43.016;25.784;2022-10-10T10:48:27;100889.03;;;23.67;48.10
9523;BME280;63165;43.016;25.784;2022-10-10T10:50:56;100879.72;;;23.74;47.83
9523;BME280;63165;43.016;25.784;2022-10-10T10:53:37;100875.56;;;23.84;47.41
9523;BME280;63165;43.016;25.784;2022-10-10T10:56:16;100879.91;;;24.01;47.47
9523;BME280;63165;43.016;25.784;2022-10-10T10:59:07;100877.09;;;24.18;46.65
9523;BME280;63165;43.016;25.784;2022-10-10T11:01:43;100869.38;;;24.28;46.60
9523;BME280;63165;43.016;25.784;2022-10-10T11:04:24;100886.16;;;24.30;46.08
9523;BME280;63165;43.016;25.784;2022-10-10T11:07:03;100859.13;;;24.20;45.35
9523;BME280;63165;43.016;25.784;2022-10-10T11:09:39;100862.56;;;24.37;45.33
9523;BME280;63165;43.016;25.784;2022-10-10T11:12:17;100844.81;;;24.36;44.76
9523;BME280;63165;43.016;25.784;2022-10-10T11:14:55;100821.31;;;24.41;44.71
9523;BME280;63165;43.016;25.784;2022-10-10T11:17:27;100856.03;;;24.57;44.07
9523;BME280;63165;43.016;25.784;2022-10-10T11:19:58;100851.81;;;24.53;44.53
9523;BME280;63165;43.016;25.784;2022-10-10T11:22:29;100851.13;;;24.49;44.60
9523;BME280;63165;43.016;25.784;2022-10-10T11:25:04;100848.31;;;24.52;44.41
9523;BME280;63165;43.016;25.784;2022-10-10T11:27:37;100845.22;;;24.58;43.82
9523;BME280;63165;43.016;25.784;2022-10-10T11:30:13;100847.91;;;24.73;44.12
9523;BME280;63165;43.016;25.784;2022-10-10T11:32:46;100845.69;;;24.79;44.00
9523;BME280;63165;43.016;25.784;2022-10-10T11:35:20;100845.19;;;24.87;43.41
9523;BME280;63165;43.016;25.784;2022-10-10T11:37:54;100844.25;;;24.88;43.43
9523;BME280;63165;43.016;25.784;2022-10-10T11:40:47;100844.91;;;24.92;42.63
9523;BME280;63165;43.016;25.784;2022-10-10T11:43:21;100841.63;;;25.01;43.20
9523;BME280;63165;43.016;25.784;2022-10-10T11:45:54;100837.50;;;25.10;43.11
9523;BME280;63165;43.016;25.784;2022-10-10T11:48:28;100827.75;;;25.09;43.59
9523;BME280;63165;43.016;25.784;2022-10-10T11:51:04;100826.50;;;25.14;43.56
9523;BME280;63165;43.016;25.784;2022-10-10T11:53:40;100828.84;;;25.19;42.97
9523;BME280;63165;43.016;25.784;2022-10-10T11:56:16;100821.88;;;25.31;42.86
9523;BME280;63165;43.016;25.784;2022-10-10T11:58:47;100822.13;;;25.41;42.59
9523;BME280;63165;43.016;25.784;2022-10-10T12:01:22;100822.13;;;25.41;42.00
9523;BME280;63165;43.016;25.784;2022-10-10T12:03:51;100798.28;;;25.23;42.52
9523;BME280;63165;43.016;25.784;2022-10-10T12:06:22;100829.41;;;25.38;41.53
9523;BME280;63165;43.016;25.784;2022-10-10T12:08:55;100825.56;;;25.43;41.72
9523;BME280;63165;43.016;25.784;2022-10-10T12:11:29;100822.03;;;25.42;41.60
9523;BME280;63165;43.016;25.784;2022-10-10T12:13:59;100818.06;;;25.48;41.91
9523;BME280;63165;43.016;25.784;2022-10-10T12:16:30;100815.94;;;25.53;41.08
9523;BME280;63165;43.016;25.784;2022-10-10T12:19:03;100806.00;;;25.55;40.87
9523;BME280;63165;43.016;25.784;2022-10-10T12:21:31;100793.09;;;25.47;40.50
9523;BME280;63165;43.016;25.784;2022-10-10T12:24:16;100782.66;;;25.30;40.35
9523;BME280;63165;43.016;25.784;2022-10-10T12:30:15;100798.28;;;25.23;40.49
9523;BME280;63165;43.016;25.784;2022-10-10T12:32:44;100809.53;;;25.28;41.00
9523;BME280;63165;43.016;25.784;2022-10-10T12:35:36;100804.88;;;25.17;40.04
9523;BME280;63165;43.016;25.784;2022-10-10T12:38:22;100807.66;;;25.16;40.06
9523;BME280;63165;43.016;25.784;2022-10-10T12:41:12;100811.28;;;25.15;40.50
9523;BME280;63165;43.016;25.784;2022-10-10T12:43:50;100800.75;;;25.12;40.95
9523;BME280;63165;43.016;25.784;2022-10-10T12:46:39;100804.81;;;25.05;41.26
9523;BME280;63165;43.016;25.784;2022-10-10T12:49:18;100797.28;;;24.97;40.98
9523;BME280;63165;43.016;25.784;2022-10-10T12:52:09;100803.41;;;24.99;41.45
9523;BME280;63165;43.016;25.784;2022-10-10T12:54:39;100808.19;;;24.94;41.67
9523;BME280;63165;43.016;25.784;2022-10-10T12:57:14;100790.22;;;24.82;41.85
9523;BME280;63165;43.016;25.784;2022-10-10T12:59:42;100809.13;;;24.93;41.38
9523;BME280;63165;43.016;25.784;2022-10-10T13:02:17;100805.25;;;24.84;41.64
9523;BME280;63165;43.016;25.784;2022-10-10T13:04:47;100812.31;;;24.85;41.26
9523;BME280;63165;43.016;25.784;2022-10-10T13:07:19;100789.13;;;24.71;41.70
9523;BME280;63165;43.016;25.784;2022-10-10T13:09:48;100789.13;;;24.71;41.41
9523;BME280;63165;43.016;25.784;2022-10-10T13:12:24;100806.78;;;24.74;41.17
9523;BME280;63165;43.016;25.784;2022-10-10T13:14:52;100788.06;;;24.59;41.78
9523;BME280;63165;43.016;25.784;2022-10-10T13:17:25;100785.22;;;24.63;41.46
9523;BME280;63165;43.016;25.784;2022-10-10T13:19:53;100792.47;;;24.60;41.61